createdAt,value
2023-03-15T00:01:46.599Z,0.10
2023-03-15T00:04:14.482Z,0.30
2023-03-15T00:06:41.129Z,0.10
2023-03-15T00:09:08.000Z,0.10
2023-03-15T00:11:34.529Z,0.40
2023-03-15T00:14:02.502Z,0.20
2023-03-15T00:16:29.580Z,0.20
2023-03-15T00:18:56.653Z,0.20
2023-03-15T00:21:23.593Z,0.20
2023-03-15T00:23:50.538Z,0.10
2023-03-15T00:26:17.195Z,0.30
2023-03-15T00:28:43.998Z,0.20
2023-03-15T00:31:18.520Z,0.22
2023-03-15T00:33:45.464Z,0.30
2023-03-15T00:36:12.940Z,0.30
2023-03-15T00:38:41.769Z,0.30
2023-03-15T00:41:13.284Z,0.20
2023-03-15T00:43:40.100Z,0.25
2023-03-15T00:46:07.067Z,0.30
2023-03-15T00:48:35.313Z,0.30
2023-03-15T00:51:02.725Z,0.50
2023-03-15T00:53:29.641Z,0.60
2023-03-15T00:55:56.162Z,0.60
2023-03-15T00:58:24.237Z,0.50
2023-03-15T01:00:52.026Z,0.80
2023-03-15T01:03:18.527Z,0.70
2023-03-15T01:05:45.062Z,0.68
2023-03-15T01:08:11.540Z,0.60
2023-03-15T01:10:38.037Z,0.80
2023-03-15T01:13:04.474Z,0.75
2023-03-15T01:15:30.975Z,0.68
2023-03-15T01:17:57.422Z,0.80
2023-03-15T01:20:23.868Z,0.80
2023-03-15T01:22:50.372Z,0.70
2023-03-15T01:25:16.830Z,0.40
2023-03-15T01:27:43.287Z,0.68
2023-03-15T01:30:10.340Z,0.57
2023-03-15T01:32:36.793Z,0.85
2023-03-15T01:35:03.388Z,0.50
2023-03-15T01:37:29.885Z,0.40
2023-03-15T01:39:56.440Z,0.50
2023-03-15T01:42:23.106Z,0.30
2023-03-15T01:45:02.076Z,0.32
2023-03-15T01:47:28.854Z,0.50
2023-03-15T01:50:02.525Z,0.30
2023-03-15T01:52:34.168Z,0.30
2023-03-15T01:55:05.466Z,0.35
2023-03-15T01:57:49.737Z,0.40
2023-03-15T02:00:19.883Z,0.40
2023-03-15T02:03:17.035Z,0.30
2023-03-15T02:05:48.112Z,0.50
2023-03-15T02:08:17.648Z,0.38
2023-03-15T02:10:49.446Z,0.30
2023-03-15T02:13:22.690Z,0.30
2023-03-15T02:15:49.577Z,0.43
2023-03-15T02:18:17.007Z,0.40
2023-03-15T02:21:16.529Z,0.40
2023-03-15T02:23:46.400Z,0.40
2023-03-15T02:26:24.609Z,0.50
2023-03-15T02:28:53.791Z,0.70
2023-03-15T02:31:21.214Z,0.52
2023-03-15T02:33:51.448Z,0.65
2023-03-15T02:36:22.372Z,0.50
2023-03-15T02:38:49.852Z,0.30
2023-03-15T02:41:26.997Z,0.50
2023-03-15T02:43:58.863Z,0.45
2023-03-15T02:46:25.646Z,0.40
2023-03-15T02:48:54.238Z,0.50
2023-03-15T02:51:23.361Z,0.30
2023-03-15T02:53:49.911Z,0.35
2023-03-15T02:56:17.033Z,0.30
2023-03-15T02:58:46.840Z,0.50
2023-03-15T03:01:14.513Z,0.40
2023-03-15T03:03:42.137Z,0.60
2023-03-15T03:06:09.218Z,0.60
2023-03-15T03:08:35.704Z,0.30
2023-03-15T03:11:02.545Z,0.47
2023-03-15T03:13:29.080Z,0.40
2023-03-15T03:15:58.687Z,0.60
2023-03-15T03:18:29.954Z,0.45
2023-03-15T03:20:57.643Z,0.38
2023-03-15T03:23:26.384Z,0.50
2023-03-15T03:25:53.970Z,0.50
2023-03-15T03:28:21.678Z,0.40
2023-03-15T03:30:48.295Z,0.43
2023-03-15T03:33:14.866Z,0.45
2023-03-15T03:35:41.861Z,0.35
2023-03-15T03:38:09.856Z,0.40
2023-03-15T03:40:36.732Z,0.40
2023-03-15T03:43:03.301Z,0.47
2023-03-15T03:45:29.779Z,0.50
2023-03-15T03:47:56.276Z,0.30
2023-03-15T03:50:22.813Z,0.52
2023-03-15T03:52:49.343Z,0.87
2023-03-15T03:55:15.792Z,0.77
2023-03-15T03:57:42.984Z,0.45
2023-03-15T04:00:14.218Z,0.43
2023-03-15T04:02:44.417Z,0.40
2023-03-15T04:05:11.494Z,0.50
2023-03-15T04:07:38.625Z,0.60
2023-03-15T04:10:05.934Z,0.35
2023-03-15T04:12:32.535Z,0.50
2023-03-15T04:14:59.066Z,0.63
2023-03-15T04:17:25.572Z,0.30
2023-03-15T04:19:52.141Z,0.50
2023-03-15T04:22:18.606Z,0.43
2023-03-15T04:24:45.075Z,0.57
2023-03-15T04:27:14.633Z,0.55
2023-03-15T04:29:44.225Z,0.50
2023-03-15T04:32:11.545Z,0.52
2023-03-15T04:34:38.927Z,0.45
2023-03-15T04:37:06.132Z,0.50
2023-03-15T04:39:32.620Z,0.50
2023-03-15T04:41:59.140Z,0.57
2023-03-15T04:44:27.466Z,0.85
2023-03-15T04:46:55.186Z,0.60
2023-03-15T04:49:21.947Z,0.55
2023-03-15T04:51:48.546Z,1.30
2023-03-15T04:54:15.023Z,0.80
2023-03-15T04:56:42.212Z,0.55
2023-03-15T04:59:10.611Z,0.63
2023-03-15T05:01:37.607Z,0.50
2023-03-15T05:04:04.245Z,0.47
2023-03-15T05:06:30.802Z,0.93
2023-03-15T05:08:57.276Z,0.50
2023-03-15T05:11:23.934Z,0.70
2023-03-15T05:13:50.537Z,0.70
2023-03-15T05:16:17.408Z,0.70
2023-03-15T05:18:45.280Z,0.67
2023-03-15T05:21:13.123Z,0.80
2023-03-15T05:23:40.043Z,0.85
2023-03-15T05:26:06.500Z,0.70
2023-03-15T05:28:33.037Z,1.10
2023-03-15T05:31:00.737Z,1.00
2023-03-15T05:33:27.433Z,0.80
2023-03-15T05:35:56.313Z,0.60
2023-03-15T05:38:26.487Z,1.00
2023-03-15T05:40:53.614Z,0.75
2023-03-15T05:43:20.941Z,0.63
2023-03-15T05:45:48.711Z,0.75
2023-03-15T05:48:16.727Z,0.57
2023-03-15T05:50:43.526Z,0.82
2023-03-15T05:53:10.618Z,0.70
2023-03-15T05:55:37.545Z,1.10
2023-03-15T05:58:04.591Z,0.77
2023-03-15T06:00:31.163Z,0.68
2023-03-15T06:02:57.685Z,0.60
2023-03-15T06:05:24.209Z,0.80
2023-03-15T06:07:50.772Z,0.70
2023-03-15T06:10:17.433Z,1.17
2023-03-15T06:12:44.704Z,0.73
2023-03-15T06:15:11.465Z,0.60
2023-03-15T06:17:37.988Z,0.60
2023-03-15T06:20:05.113Z,0.83
2023-03-15T06:22:31.768Z,0.68
2023-03-15T06:24:58.280Z,0.55
2023-03-15T06:27:24.820Z,0.63
2023-03-15T06:29:51.568Z,0.80
2023-03-15T06:32:18.039Z,0.60
2023-03-15T06:34:44.510Z,0.65
2023-03-15T06:37:16.229Z,0.85
2023-03-15T06:39:46.862Z,0.70
2023-03-15T06:42:13.756Z,0.63
2023-03-15T06:44:41.292Z,0.70
2023-03-15T06:47:09.162Z,0.90
2023-03-15T06:49:35.713Z,1.25
2023-03-15T06:52:03.890Z,0.70
2023-03-15T06:54:30.734Z,0.70
2023-03-15T06:56:57.798Z,0.60
2023-03-15T06:59:24.735Z,0.90
2023-03-15T07:01:51.500Z,0.80
2023-03-15T07:04:18.167Z,0.80
2023-03-15T07:06:44.687Z,0.93
2023-03-15T07:09:11.124Z,0.83
2023-03-15T07:11:37.660Z,0.73
2023-03-15T07:14:04.177Z,1.02
2023-03-15T07:16:30.834Z,0.80
2023-03-15T07:18:59.366Z,0.88
2023-03-15T07:21:27.305Z,0.80
2023-03-15T07:23:54.221Z,0.73
2023-03-15T07:26:21.064Z,0.60
2023-03-15T07:28:47.520Z,0.90
2023-03-15T07:31:14.306Z,0.90
2023-03-15T07:33:41.020Z,1.30
2023-03-15T07:36:08.431Z,1.10
2023-03-15T07:38:35.407Z,0.90
2023-03-15T07:41:03.526Z,1.15
2023-03-15T07:43:30.096Z,0.98
2023-03-15T07:45:56.556Z,1.27
2023-03-15T07:48:23.096Z,0.90
2023-03-15T07:50:49.637Z,0.95
2023-03-15T07:53:16.227Z,0.60
2023-03-15T07:55:42.733Z,0.70
2023-03-15T07:58:09.244Z,0.83
2023-03-15T08:00:35.733Z,0.70
2023-03-15T08:03:02.293Z,0.52
2023-03-15T08:05:29.239Z,0.40
2023-03-15T08:07:56.645Z,0.60
2023-03-15T08:10:23.190Z,0.77
2023-03-15T08:12:49.682Z,0.50
2023-03-15T08:15:16.451Z,0.40
2023-03-15T08:17:43.211Z,0.57
2023-03-15T08:20:20.297Z,0.45
2023-03-15T08:22:51.464Z,0.60
2023-03-15T08:25:20.941Z,0.30
2023-03-15T08:27:47.590Z,0.52
2023-03-15T08:30:15.245Z,0.30
2023-03-15T08:32:43.874Z,0.40
2023-03-15T08:35:15.130Z,0.40
2023-03-15T08:37:42.371Z,0.30
2023-03-15T08:40:10.382Z,0.20
2023-03-15T08:42:37.825Z,0.32
2023-03-15T08:45:08.958Z,0.28
2023-03-15T08:47:35.634Z,0.30
2023-03-15T08:50:05.447Z,0.38
2023-03-15T08:52:32.634Z,0.20
2023-03-15T08:54:59.366Z,0.50
2023-03-15T08:57:26.556Z,0.30
2023-03-15T08:59:53.864Z,0.20
2023-03-15T09:02:20.457Z,0.30
2023-03-15T09:04:47.176Z,0.30
2023-03-15T09:07:13.744Z,0.20
2023-03-15T09:09:40.328Z,0.40
2023-03-15T09:12:07.080Z,0.30
2023-03-15T09:14:34.117Z,0.20
2023-03-15T09:17:00.639Z,0.30
2023-03-15T09:19:27.137Z,0.32
2023-03-15T09:21:53.597Z,0.20
2023-03-15T09:24:20.145Z,0.40
2023-03-15T09:26:46.574Z,0.32
2023-03-15T09:29:13.138Z,0.30
2023-03-15T09:31:39.964Z,0.45
2023-03-15T09:34:06.504Z,0.32
2023-03-15T09:36:33.873Z,0.23
2023-03-15T09:39:01.654Z,0.55
2023-03-15T09:41:46.266Z,0.30
2023-03-15T09:44:23.708Z,0.30
2023-03-15T09:46:56.038Z,0.20
2023-03-15T09:49:34.556Z,0.20
2023-03-15T09:52:12.245Z,0.40
2023-03-15T09:54:49.898Z,0.30
2023-03-15T09:57:29.027Z,0.20
2023-03-15T09:59:56.794Z,0.20
2023-03-15T10:02:31.114Z,0.40
2023-03-15T10:05:09.987Z,0.30
2023-03-15T10:07:36.727Z,1.02
2023-03-15T10:10:04.973Z,0.20
2023-03-15T10:12:40.803Z,0.30
2023-03-15T10:15:26.051Z,0.27
2023-03-15T10:17:58.617Z,0.35
2023-03-15T10:20:29.609Z,0.22
2023-03-15T10:23:02.999Z,0.45
2023-03-15T10:25:31.492Z,0.20
2023-03-15T10:27:57.946Z,0.40
2023-03-15T10:30:27.356Z,0.22
2023-03-15T10:33:14.240Z,0.32
2023-03-15T10:35:42.837Z,0.30
2023-03-15T10:38:16.992Z,0.30
2023-03-15T10:40:45.138Z,0.30
2023-03-15T10:43:30.212Z,0.40
2023-03-15T10:46:09.198Z,0.20
2023-03-15T10:48:41.297Z,0.20
2023-03-15T10:51:18.505Z,0.30
2023-03-15T10:54:12.505Z,0.20
2023-03-15T10:56:54.156Z,0.32
2023-03-15T10:59:26.522Z,0.20
2023-03-15T11:02:07.868Z,0.40
2023-03-15T11:04:34.574Z,0.30
2023-03-15T11:07:04.848Z,0.30
2023-03-15T11:09:44.673Z,0.20
2023-03-15T11:12:21.270Z,0.20
2023-03-15T11:14:49.910Z,0.20
2023-03-15T11:17:30.639Z,0.38
2023-03-15T11:20:13.508Z,0.30
2023-03-15T11:22:40.361Z,0.30
2023-03-15T11:25:18.052Z,0.32
2023-03-15T11:27:51.122Z,0.20
2023-03-15T11:30:18.451Z,0.20
2023-03-15T11:32:46.491Z,0.20
2023-03-15T11:35:19.723Z,0.20
2023-03-15T11:37:58.501Z,0.30
2023-03-15T11:40:48.811Z,0.20
2023-03-15T11:43:21.831Z,0.30
2023-03-15T11:45:55.725Z,0.27
2023-03-15T11:48:36.785Z,0.20
2023-03-15T11:51:03.320Z,0.30
2023-03-15T11:53:35.072Z,0.28
2023-03-15T11:56:49.021Z,0.57
2023-03-15T11:59:18.830Z,0.27
2023-03-15T12:01:50.683Z,0.22
2023-03-15T12:04:29.120Z,0.30
2023-03-15T12:06:57.573Z,0.20
2023-03-15T12:09:52.359Z,0.15
2023-03-15T12:12:25.014Z,0.30
2023-03-15T12:15:06.611Z,0.30
2023-03-15T12:17:38.082Z,0.22
2023-03-15T12:20:14.633Z,0.20
2023-03-15T12:22:52.108Z,0.30
2023-03-15T12:25:55.090Z,0.30
2023-03-15T12:28:41.314Z,0.30
2023-03-15T12:31:13.670Z,0.20
2023-03-15T12:34:00.968Z,0.30
2023-03-15T12:36:34.508Z,0.20
2023-03-15T12:39:20.836Z,0.30
2023-03-15T12:41:50.830Z,0.30
2023-03-15T12:44:38.330Z,0.47
2023-03-15T12:47:12.270Z,0.30
2023-03-15T12:49:44.025Z,0.30
2023-03-15T12:52:28.699Z,0.20
2023-03-15T12:55:04.943Z,0.30
2023-03-15T12:57:53.933Z,0.35
2023-03-15T13:00:27.442Z,0.30
2023-03-15T13:03:04.145Z,0.52
2023-03-15T13:05:36.244Z,0.20
2023-03-15T13:08:23.946Z,0.20
2023-03-15T13:10:59.313Z,0.20
2023-03-15T13:13:52.196Z,0.20
2023-03-15T13:17:17.082Z,0.70
2023-03-15T13:19:46.961Z,0.20
2023-03-15T13:22:25.627Z,0.20
2023-03-15T13:25:09.927Z,0.20
2023-03-15T13:27:53.261Z,0.30
2023-03-15T13:30:55.735Z,0.32
2023-03-15T13:33:40.454Z,0.20
2023-03-15T13:36:16.292Z,0.22
2023-03-15T13:38:45.464Z,0.40
2023-03-15T13:41:30.825Z,0.30
2023-03-15T13:44:00.641Z,0.30
2023-03-15T13:46:31.255Z,0.40
2023-03-15T13:49:00.614Z,0.20
2023-03-15T13:51:31.663Z,0.20
2023-03-15T13:54:08.384Z,0.20
2023-03-15T13:56:48.854Z,0.30
2023-03-15T13:59:17.366Z,0.30
2023-03-15T14:01:43.954Z,0.32
2023-03-15T14:04:17.470Z,0.30
2023-03-15T14:06:47.239Z,0.30
2023-03-15T14:09:28.118Z,0.60
2023-03-15T14:12:06.004Z,0.30
2023-03-15T14:14:36.568Z,0.40
2023-03-15T14:17:08.862Z,0.50
2023-03-15T14:19:36.844Z,0.40
2023-03-15T14:22:13.828Z,0.40
2023-03-15T14:24:43.100Z,0.30
2023-03-15T14:27:16.305Z,0.20
2023-03-15T14:29:52.064Z,0.30
2023-03-15T14:32:37.557Z,0.30
2023-03-15T14:35:24.241Z,0.50
2023-03-15T14:38:15.964Z,0.33
2023-03-15T14:40:42.714Z,0.35
2023-03-15T14:43:11.863Z,0.35
2023-03-15T14:45:40.772Z,0.38
2023-03-15T14:48:29.400Z,0.40
2023-03-15T14:50:56.489Z,0.30
2023-03-15T14:53:26.287Z,0.30
2023-03-15T14:55:52.806Z,0.40
2023-03-15T14:58:21.971Z,0.70
2023-03-15T15:00:51.720Z,0.55
2023-03-15T15:03:22.260Z,0.40
2023-03-15T15:05:49.129Z,0.30
2023-03-15T15:08:18.365Z,0.63
2023-03-15T15:10:47.171Z,0.28
2023-03-15T15:13:20.580Z,0.30
2023-03-15T15:15:55.801Z,0.37
2023-03-15T15:18:28.012Z,0.35
2023-03-15T15:20:57.330Z,0.22
2023-03-15T15:23:30.132Z,0.50
2023-03-15T15:26:05.428Z,0.30
2023-03-15T15:28:36.421Z,0.50
2023-03-15T15:31:05.669Z,0.32
2023-03-15T15:33:32.251Z,0.40
2023-03-15T15:35:58.860Z,0.30
2023-03-15T15:38:33.109Z,0.30
2023-03-15T15:40:59.791Z,0.50
2023-03-15T15:43:26.286Z,0.22
2023-03-15T15:45:52.791Z,0.50
2023-03-15T15:48:19.305Z,0.30
2023-03-15T15:50:45.839Z,0.60
2023-03-15T15:53:17.348Z,0.40
2023-03-15T15:55:44.303Z,0.40
2023-03-15T15:58:12.836Z,0.30
2023-03-15T16:00:39.414Z,0.57
2023-03-15T16:03:16.173Z,0.30
2023-03-15T16:05:43.529Z,0.30
2023-03-15T16:08:22.349Z,0.30
2023-03-15T16:10:48.894Z,0.50
2023-03-15T16:13:15.534Z,0.30
2023-03-15T16:15:42.092Z,0.32
2023-03-15T16:18:12.232Z,0.43
2023-03-15T16:20:40.545Z,0.50
2023-03-15T16:23:10.956Z,0.40
2023-03-15T16:25:37.548Z,0.40
2023-03-15T16:28:05.241Z,0.40
2023-03-15T16:30:33.129Z,0.90
2023-03-15T16:32:59.653Z,0.40
2023-03-15T16:35:34.988Z,0.30
2023-03-15T16:38:05.034Z,0.30
2023-03-15T16:40:39.387Z,0.57
2023-03-15T16:43:08.514Z,0.27
2023-03-15T16:45:35.098Z,0.30
2023-03-15T16:48:01.604Z,0.60
2023-03-15T16:50:28.341Z,0.50
2023-03-15T16:52:56.787Z,0.30
2023-03-15T16:55:33.009Z,0.40
2023-03-15T16:58:10.737Z,0.40
2023-03-15T17:00:37.300Z,0.55
2023-03-15T17:03:04.655Z,0.38
2023-03-15T17:05:32.867Z,0.50
2023-03-15T17:08:00.949Z,0.30
2023-03-15T17:10:31.322Z,0.30
2023-03-15T17:13:02.316Z,0.55
2023-03-15T17:15:30.557Z,0.38
2023-03-15T17:18:00.655Z,0.40
2023-03-15T17:20:28.943Z,0.53
2023-03-15T17:23:04.305Z,0.40
2023-03-15T17:25:32.161Z,0.30
2023-03-15T17:28:00.256Z,0.40
2023-03-15T17:30:32.866Z,0.32
2023-03-15T17:32:59.847Z,0.37
2023-03-15T17:35:36.145Z,0.30
2023-03-15T17:38:06.062Z,0.40
2023-03-15T17:40:35.600Z,0.43
2023-03-15T17:43:04.155Z,0.50
2023-03-15T17:45:33.294Z,0.50
2023-03-15T17:48:00.671Z,0.32
2023-03-15T17:50:30.788Z,0.50
2023-03-15T17:53:03.276Z,0.32
2023-03-15T17:55:34.825Z,0.60
2023-03-15T17:58:11.769Z,1.20
2023-03-15T18:00:39.240Z,1.50
2023-03-15T18:03:06.107Z,1.52
2023-03-15T18:05:32.845Z,1.30
2023-03-15T18:08:00.369Z,1.10
2023-03-15T18:10:41.709Z,0.70
2023-03-15T18:13:14.106Z,0.90
2023-03-15T18:15:41.335Z,0.70
2023-03-15T18:18:08.201Z,0.55
2023-03-15T18:20:35.704Z,0.30
2023-03-15T18:23:04.143Z,0.50
2023-03-15T18:25:34.012Z,0.30
2023-03-15T18:28:01.435Z,0.38
2023-03-15T18:30:30.365Z,0.30
2023-03-15T18:32:57.782Z,0.60
2023-03-15T18:35:30.778Z,0.30
2023-03-15T18:37:57.867Z,0.70
2023-03-15T18:40:27.116Z,0.50
2023-03-15T18:42:55.013Z,0.40
2023-03-15T18:45:24.713Z,0.50
2023-03-15T18:47:51.552Z,0.90
2023-03-15T18:50:19.239Z,1.60
2023-03-15T18:52:46.618Z,0.90
2023-03-15T18:55:15.774Z,0.80
2023-03-15T18:57:43.100Z,0.50
2023-03-15T19:00:13.521Z,0.30
2023-03-15T19:02:42.078Z,0.30
2023-03-15T19:05:10.539Z,0.60
2023-03-15T19:07:38.545Z,0.63
2023-03-15T19:10:07.272Z,0.50
2023-03-15T19:12:34.290Z,0.83
2023-03-15T19:15:00.801Z,0.70
2023-03-15T19:17:27.381Z,0.80
2023-03-15T19:19:53.932Z,0.70
2023-03-15T19:22:20.969Z,0.93
2023-03-15T19:24:47.435Z,1.00
2023-03-15T19:27:14.089Z,1.25
2023-03-15T19:29:40.585Z,1.20
2023-03-15T19:32:07.088Z,1.92
2023-03-15T19:34:33.588Z,3.65
2023-03-15T19:37:00.264Z,2.63
2023-03-15T19:39:26.794Z,2.88
2023-03-15T19:41:53.573Z,2.20
2023-03-15T19:44:22.526Z,1.85
2023-03-15T19:46:49.578Z,1.80
2023-03-15T19:49:16.090Z,1.90
2023-03-15T19:51:42.556Z,1.73
2023-03-15T19:54:09.252Z,2.53
2023-03-15T19:56:35.789Z,2.22
2023-03-15T19:59:03.127Z,2.75
2023-03-15T20:01:29.910Z,2.47
2023-03-15T20:03:56.502Z,2.65
2023-03-15T20:06:22.988Z,2.28
2023-03-15T20:08:49.450Z,2.30
2023-03-15T20:11:20.161Z,2.58
2023-03-15T20:13:47.289Z,2.30
2023-03-15T20:16:14.040Z,2.40
2023-03-15T20:18:40.594Z,2.47
2023-03-15T20:21:07.092Z,2.20
2023-03-15T20:23:34.829Z,1.70
2023-03-15T20:26:10.869Z,3.00
2023-03-15T20:28:39.024Z,4.50
2023-03-15T20:31:10.435Z,3.08
2023-03-15T20:33:37.031Z,3.00
2023-03-15T20:36:04.319Z,2.78
2023-03-15T20:38:31.093Z,2.40
2023-03-15T20:40:57.588Z,2.83
2023-03-15T20:43:24.082Z,2.67
2023-03-15T20:45:55.929Z,2.90
2023-03-15T20:48:24.704Z,3.47
2023-03-15T20:50:52.332Z,3.40
2023-03-15T20:53:19.581Z,3.63
2023-03-15T20:55:46.068Z,3.50
2023-03-15T20:58:13.144Z,3.20
2023-03-15T21:00:45.530Z,2.85
2023-03-15T21:03:14.214Z,2.93
2023-03-15T21:05:42.504Z,3.08
2023-03-15T21:08:12.567Z,3.50
2023-03-15T21:10:39.848Z,3.88
2023-03-15T21:13:10.043Z,3.60
2023-03-15T21:15:48.166Z,4.20
2023-03-15T21:18:17.179Z,4.13
2023-03-15T21:20:44.542Z,3.63
2023-03-15T21:23:12.247Z,3.13
2023-03-15T21:25:39.088Z,4.22
2023-03-15T21:28:06.037Z,3.90
2023-03-15T21:30:33.235Z,3.78
2023-03-15T21:33:00.377Z,3.72
2023-03-15T21:35:27.357Z,3.70
2023-03-15T21:37:54.271Z,3.05
2023-03-15T21:40:21.396Z,2.70
2023-03-15T21:42:48.467Z,2.20
2023-03-15T21:45:16.427Z,2.85
2023-03-15T21:47:46.067Z,2.30
2023-03-15T21:50:13.160Z,2.90
2023-03-15T21:52:39.833Z,2.70
2023-03-15T21:55:07.845Z,2.45
2023-03-15T21:57:34.365Z,2.13
2023-03-15T22:00:01.278Z,2.22
2023-03-15T22:02:27.816Z,2.53
2023-03-15T22:04:54.376Z,2.43
2023-03-15T22:07:20.875Z,2.90
2023-03-15T22:09:47.321Z,2.85
2023-03-15T22:12:15.468Z,2.53
2023-03-15T22:14:42.124Z,2.17
2023-03-15T22:17:08.720Z,3.40
2023-03-15T22:19:35.426Z,2.60
2023-03-15T22:22:01.968Z,2.85
2023-03-15T22:24:28.403Z,2.38
2023-03-15T22:26:54.977Z,2.22
2023-03-15T22:29:21.565Z,2.70
2023-03-15T22:31:48.108Z,1.90
2023-03-15T22:34:14.567Z,2.22
2023-03-15T22:36:42.678Z,2.20
2023-03-15T22:39:09.770Z,2.45
2023-03-15T22:41:36.331Z,2.60
2023-03-15T22:44:03.153Z,1.85
2023-03-15T22:46:34.919Z,2.00
2023-03-15T22:49:02.231Z,2.33
2023-03-15T22:51:28.787Z,2.10
2023-03-15T22:53:55.249Z,2.00
2023-03-15T22:56:21.885Z,2.25
2023-03-15T22:58:48.784Z,1.75
2023-03-15T23:01:15.402Z,2.20
2023-03-15T23:03:43.228Z,2.20
2023-03-15T23:06:09.736Z,1.87
2023-03-15T23:08:36.421Z,2.42
2023-03-15T23:11:03.824Z,2.25
2023-03-15T23:13:30.369Z,2.05
2023-03-15T23:15:57.104Z,2.70
2023-03-15T23:18:23.597Z,2.00
2023-03-15T23:20:50.267Z,2.17
2023-03-15T23:23:17.314Z,2.17
2023-03-15T23:25:45.843Z,2.53
2023-03-15T23:28:13.776Z,2.20
2023-03-15T23:30:40.329Z,2.43
2023-03-15T23:33:08.411Z,2.10
2023-03-15T23:35:35.290Z,2.25
2023-03-15T23:38:01.877Z,2.33
2023-03-15T23:40:30.091Z,2.15
2023-03-15T23:42:59.305Z,1.67
2023-03-15T23:45:28.349Z,2.10
2023-03-15T23:47:54.980Z,2.40
2023-03-15T23:50:26.006Z,2.00
2023-03-15T23:52:53.803Z,1.80
2023-03-15T23:55:21.239Z,2.27
2023-03-15T23:57:48.095Z,1.85
